Time,TemperatureF,DewpointF,PressureIn,WindDirection,WindDirectionDegrees,WindSpeedMPH,WindSpeedGustMPH,Humidity,HourlyPrecipIn,Conditions,Clouds,dailyrainin,SolarRadiationWatts/m^2,UVIndex,SoftwareType,DateUTC
2026-09-03 00:04:57,75.3,71.5,30.04,ESE,109,0.2,1.2,88,0.00,,,0.00,0,0,n/a,2026-09-03T04:04:57Z
2026-09-03 00:09:56,75.2,71.4,30.04,ESE,109,0,0,88,0.00,,,0.00,0,0,n/a,2026-09-03T04:09:56Z
2026-09-03 00:14:59,75.1,71.3,30.04,ESE,109,0,0,88,0.00,,,0.00,0,0,n/a,2026-09-03T04:14:59Z
2026-09-03 00:19:59,75,71.2,30.04,ESE,109,0,0,88,0.00,,,0.00,0,0,n/a,2026-09-03T04:19:59Z
2026-09-03 00:24:56,74.9,71.3,30.04,ESE,109,0,0,88.6,0.00,,,0.00,0,0,n/a,2026-09-03T04:24:56Z
2026-09-03 00:29:59,74.8,71.3,30.04,ESE,109,0.1,2.3,89,0.00,,,0.00,0,0,n/a,2026-09-03T04:29:59Z
2026-09-03 00:34:57,74.8,71.3,30.04,ESE,109,0,2.3,89,0.00,,,0.00,0,0,n/a,2026-09-03T04:34:57Z
2026-09-03 00:39:57,74.7,71.2,30.04,ESE,109,0.1,2.3,89,0.00,,,0.00,0,0,n/a,2026-09-03T04:39:57Z
2026-09-03 00:44:59,74.6,71.1,30.04,ESE,109,0.3,1.2,89,0.00,,,0.00,0,0,n/a,2026-09-03T04:44:59Z
2026-09-03 00:49:57,74.5,71,30.04,ESE,109,0.2,2.3,89,0.00,,,0.00,0,0,n/a,2026-09-03T04:49:57Z
2026-09-03 00:54:59,74.5,71,30.04,ESE,109,0.3,1.2,89,0.00,,,0.00,0,0,n/a,2026-09-03T04:54:59Z
2026-09-03 00:59:58,74.4,71.1,30.04,ESE,109,0.3,1.2,89.6,0.00,,,0.00,0,0,n/a,2026-09-03T04:59:58Z
2026-09-03 01:04:59,74.3,70.9,30.04,ESE,109,0,0,89.2,0.00,,,0.00,0,0,n/a,2026-09-03T05:04:59Z
2026-09-03 01:09:56,74.2,71,30.04,ESE,109,0,1.2,89.7,0.00,,,0.00,0,0,n/a,2026-09-03T05:09:56Z
2026-09-03 01:14:57,74.1,71,30.04,ESE,109,0.1,1.2,90,0.00,,,0.00,0,0,n/a,2026-09-03T05:14:57Z
2026-09-03 01:19:58,74,70.9,30.04,ESE,109,0.3,1.2,90,0.00,,,0.00,0,0,n/a,2026-09-03T05:19:58Z
2026-09-03 01:24:59,74,70.9,30.04,ESE,109,0.1,2.3,90,0.00,,,0.00,0,0,n/a,2026-09-03T05:24:59Z
2026-09-03 01:29:56,73.9,70.8,30.04,ESE,109,0.1,2.3,90,0.00,,,0.00,0,0,n/a,2026-09-03T05:29:56Z
2026-09-03 01:34:59,73.8,70.7,30.04,ESE,109,0,1.2,90,0.00,,,0.00,0,0,n/a,2026-09-03T05:34:59Z
2026-09-03 01:39:59,73.8,70.7,30.04,ESE,109,0.1,1.2,90,0.00,,,0.00,0,0,n/a,2026-09-03T05:39:59Z
2026-09-03 01:44:57,73.7,70.6,30.04,ESE,109,0,0,90,0.00,,,0.00,0,0,n/a,2026-09-03T05:44:57Z
2026-09-03 01:49:57,73.7,70.7,30.04,ESE,109,0.1,1.2,90.5,0.00,,,0.00,0,0,n/a,2026-09-03T05:49:57Z
2026-09-03 01:54:59,73.6,70.8,30.04,ESE,109,0.3,2.3,91,0.00,,,0.00,0,0,n/a,2026-09-03T05:54:59Z
2026-09-03 01:59:56,73.5,70.7,30.04,ESE,109,0,2.3,91,0.00,,,0.00,0,0,n/a,2026-09-03T05:59:56Z
2026-09-03 02:04:56,73.5,70.7,30.03,ESE,109,0,0,91,0.00,,,0.00,0,0,n/a,2026-09-03T06:04:56Z
2026-09-03 02:09:56,73.4,70.6,30.03,ESE,109,0,1.2,91,0.00,,,0.00,0,0,n/a,2026-09-03T06:09:56Z
2026-09-03 02:14:56,73.4,70.6,30.03,ESE,109,0.2,1.2,91,0.00,,,0.00,0,0,n/a,2026-09-03T06:14:56Z
2026-09-03 02:19:56,73.4,70.6,30.03,ESE,109,0,1.2,91,0.00,,,0.00,0,0,n/a,2026-09-03T06:19:56Z
2026-09-03 02:24:59,73.3,70.5,30.03,ESE,109,0,1.2,91,0.00,,,0.00,0,0,n/a,2026-09-03T06:24:59Z
2026-09-03 02:29:56,73.3,70.5,30.03,ESE,109,0,0,91,0.00,,,0.00,0,0,n/a,2026-09-03T06:29:56Z
2026-09-03 02:34:59,73.3,70.5,30.03,ESE,109,0.3,2.3,91,0.00,,,0.00,0,0,n/a,2026-09-03T06:34:59Z
2026-09-03 02:39:59,73.2,70.4,30.03,ESE,109,0.1,2.3,91,0.00,,,0.00,0,0,n/a,2026-09-03T06:39:59Z
2026-09-03 02:44:58,73.2,70.4,30.03,ESE,109,0.1,1.2,91,0.00,,,0.00,0,0,n/a,2026-09-03T06:44:58Z
2026-09-03 02:49:56,73.1,70.3,30.03,ESE,109,0.2,2.3,91,0.00,,,0.00,0,0,n/a,2026-09-03T06:49:56Z
2026-09-03 02:54:57,73,70.4,30.03,ESE,109,0.1,1.2,91.5,0.00,,,0.00,0,0,n/a,2026-09-03T06:54:57Z
2026-09-03 02:59:59,73,70.5,30.03,ESE,109,0,1.2,92,0.00,,,0.00,0,0,n/a,2026-09-03T06:59:59Z
2026-09-03 03:04:57,73,70.5,30.03,ESE,109,0.1,2.3,92,0.00,,,0.00,0,0,n/a,2026-09-03T07:04:57Z
2026-09-03 03:09:57,73,70.5,30.03,ESE,109,0.1,1.2,92,0.00,,,0.00,0,0,n/a,2026-09-03T07:09:57Z
2026-09-03 03:14:59,72.9,70.4,30.03,ESE,109,0,0,92,0.00,,,0.00,0,0,n/a,2026-09-03T07:14:59Z
2026-09-03 03:19:56,72.9,70.4,30.03,ESE,109,0.1,2.3,92,0.00,,,0.00,0,0,n/a,2026-09-03T07:19:56Z
2026-09-03 03:24:58,72.9,70.4,30.03,ESE,109,0,0,92,0.00,,,0.00,0,0,n/a,2026-09-03T07:24:58Z
2026-09-03 03:29:56,72.9,70.4,30.03,ESE,109,0,0,92,0.00,,,0.00,0,0,n/a,2026-09-03T07:29:56Z
2026-09-03 03:34:57,72.9,70.4,30.02,ESE,109,0,1.2,92,0.00,,,0.00,0,0,n/a,2026-09-03T07:34:57Z
2026-09-03 03:39:56,72.9,70.4,30.02,ESE,109,0.3,2.3,92,0.00,,,0.00,0,0,n/a,2026-09-03T07:39:56Z
2026-09-03 03:44:57,72.8,70.3,30.03,ESE,109,0.2,2.3,92,0.00,,,0.00,0,0,n/a,2026-09-03T07:44:57Z
2026-09-03 03:49:57,72.8,70.3,30.03,ESE,109,0,0,92,0.00,,,0.00,0,0,n/a,2026-09-03T07:49:57Z
2026-09-03 03:54:56,72.8,70.4,30.03,ESE,109,0,2.3,92.2,0.00,,,0.00,0,0,n/a,2026-09-03T07:54:56Z
2026-09-03 03:59:56,72.8,70.4,30.03,ESE,109,0.1,2.3,92.3,0.00,,,0.00,0,0,n/a,2026-09-03T07:59:56Z
2026-09-03 04:04:59,72.8,70.3,30.03,ESE,109,0,2.3,92,0.00,,,0.00,0,0,n/a,2026-09-03T08:04:59Z
2026-09-03 04:09:55,72.8,70.7,30.03,ESE,109,0,2.3,93,0.00,,,0.00,0,0,n/a,2026-09-03T08:09:55Z
2026-09-03 04:14:57,72.7,70.3,30.03,ESE,109,0,0,92.2,0.00,,,0.00,0,0,n/a,2026-09-03T08:14:57Z
2026-09-03 04:19:59,72.9,70.9,30.03,ESE,109,0,0,93.3,0.00,,,0.00,0,0,n/a,2026-09-03T08:19:59Z
2026-09-03 04:24:57,73.1,71.3,30.03,ESE,109,0,0,94,0.00,,,0.00,0,0,n/a,2026-09-03T08:24:57Z
2026-09-03 04:29:56,73.2,71.1,30.03,ESE,109,0.1,2.3,93.1,0.00,,,0.00,0,0,n/a,2026-09-03T08:29:56Z
2026-09-03 04:34:56,73.1,71,30.03,ESE,109,0.1,2.3,93,0.00,,,0.00,0,0,n/a,2026-09-03T08:34:56Z
2026-09-03 04:39:57,72.9,70.6,30.03,ESE,109,0,1.2,92.4,0.00,,,0.00,0,0,n/a,2026-09-03T08:39:57Z
2026-09-03 04:44:59,72.9,70.5,30.04,ESE,109,0,0,92.2,0.00,,,0.00,0,0,n/a,2026-09-03T08:44:59Z
2026-09-03 04:49:56,72.9,70.8,30.04,ESE,109,0,1.2,93,0.00,,,0.00,0,0,n/a,2026-09-03T08:49:56Z
2026-09-03 04:54:57,72.9,70.8,30.04,ESE,109,0.2,2.3,93,0.00,,,0.00,0,0,n/a,2026-09-03T08:54:57Z
2026-09-03 04:59:57,72.9,70.8,30.04,ESE,109,0.1,2.3,93,0.00,,,0.00,0,0,n/a,2026-09-03T08:59:57Z
2026-09-03 05:04:59,72.8,70.7,30.04,ESE,109,0,0,93,0.00,,,0.00,0,0,n/a,2026-09-03T09:04:59Z
2026-09-03 05:09:56,72.8,70.7,30.04,ESE,109,0,0,93,0.00,,,0.00,0,0,n/a,2026-09-03T09:09:56Z
2026-09-03 05:14:59,72.8,70.7,30.04,ESE,109,0,0,93,0.00,,,0.00,0,0,n/a,2026-09-03T09:14:59Z
2026-09-03 05:19:57,72.8,70.7,30.04,ESE,109,0,0,93,0.00,,,0.00,0,0,n/a,2026-09-03T09:19:57Z
2026-09-03 05:24:58,72.9,70.8,30.04,ESE,109,0,0,93.2,0.00,,,0.00,0,0,n/a,2026-09-03T09:24:58Z
2026-09-03 05:29:57,72.9,71,30.04,ESE,109,0,0,93.7,0.00,,,0.00,0,0,n/a,2026-09-03T09:29:57Z
2026-09-03 05:34:57,72.9,70.8,30.04,ESE,109,0,0,93,0.00,,,0.00,0,0,n/a,2026-09-03T09:34:57Z
2026-09-03 05:39:56,72.9,70.8,30.04,ESE,109,0,0,93,0.00,,,0.00,0,0,n/a,2026-09-03T09:39:56Z
2026-09-03 05:44:57,72.8,70.7,30.04,ESE,109,0.1,2.3,93,0.00,,,0.00,0,0,n/a,2026-09-03T09:44:57Z
2026-09-03 05:49:53,72.8,70.7,30.04,ESE,109,0.1,2.3,93,0.00,,,0.00,0,0,n/a,2026-09-03T09:49:53Z